createdAt,value
2018-03-16T00:00:17.756Z,7.92
2018-03-16T00:01:17.737Z,7.81
2018-03-16T00:02:17.727Z,7.82
2018-03-16T00:03:17.718Z,7.74
2018-03-16T00:04:17.704Z,7.69
2018-03-16T00:05:17.689Z,7.63
2018-03-16T00:06:17.686Z,7.66
2018-03-16T00:07:17.654Z,7.62
2018-03-16T00:08:17.644Z,7.67
2018-03-16T00:09:17.627Z,7.63
2018-03-16T00:10:17.613Z,7.58
2018-03-16T00:11:17.607Z,7.54
2018-03-16T00:12:17.587Z,7.52
2018-03-16T00:13:17.574Z,7.48
2018-03-16T00:14:17.568Z,7.57
2018-03-16T00:15:17.543Z,7.54
2018-03-16T00:16:17.533Z,7.54
2018-03-16T00:17:17.516Z,7.45
2018-03-16T00:18:17.503Z,7.45
2018-03-16T00:19:17.487Z,7.48
2018-03-16T00:20:17.474Z,7.37
2018-03-16T00:21:17.463Z,7.47
2018-03-16T00:22:17.454Z,7.32
2018-03-16T00:23:17.432Z,7.34
2018-03-16T00:24:17.427Z,7.34
2018-03-16T00:25:17.404Z,7.37
2018-03-16T00:26:17.390Z,7.33
2018-03-16T00:27:17.384Z,7.23
2018-03-16T00:28:17.363Z,7.21
2018-03-16T00:29:17.347Z,7.23
2018-03-16T00:30:17.337Z,7.26
2018-03-16T00:31:17.319Z,7.30
2018-03-16T00:32:17.305Z,7.36
2018-03-16T00:33:17.334Z,7.36
2018-03-16T00:34:17.277Z,7.41
2018-03-16T00:35:17.268Z,7.41
2018-03-16T00:36:17.249Z,7.45
2018-03-16T00:37:17.235Z,7.36
2018-03-16T00:38:17.228Z,7.37
2018-03-16T00:39:17.214Z,7.39
2018-03-16T00:40:17.193Z,7.44
2018-03-16T00:41:17.178Z,7.45
2018-03-16T00:42:17.165Z,7.41
2018-03-16T00:43:17.149Z,7.29
2018-03-16T00:44:17.142Z,7.24
2018-03-16T00:45:17.122Z,7.19
2018-03-16T00:46:17.109Z,7.29
2018-03-16T00:47:17.092Z,7.33
2018-03-16T00:48:17.086Z,7.37
2018-03-16T00:49:17.069Z,7.42
2018-03-16T00:50:17.051Z,7.39
2018-03-16T00:51:17.038Z,7.41
2018-03-16T00:52:17.032Z,7.41
2018-03-16T00:53:17.009Z,7.52
2018-03-16T00:54:16.994Z,7.44
2018-03-16T00:55:16.981Z,7.51
2018-03-16T00:56:16.966Z,7.48
2018-03-16T00:57:16.951Z,7.52
2018-03-16T00:58:16.947Z,7.70
2018-03-16T00:59:16.928Z,7.52
2018-03-16T01:00:16.910Z,7.54
2018-03-16T01:01:16.897Z,7.51
2018-03-16T01:02:16.886Z,7.60
2018-03-16T01:03:16.872Z,7.54
2018-03-16T01:04:16.851Z,7.52
2018-03-16T01:05:16.836Z,7.42
2018-03-16T01:06:16.823Z,7.42
2018-03-16T01:07:16.814Z,7.42
2018-03-16T01:08:16.795Z,7.36
2018-03-16T01:09:16.785Z,7.23
2018-03-16T01:10:16.765Z,7.30
2018-03-16T01:11:16.751Z,7.19
2018-03-16T01:12:16.736Z,6.96
2018-03-16T01:13:16.724Z,7.12
2018-03-16T01:14:16.709Z,7.14
2018-03-16T01:15:16.694Z,7.08
2018-03-16T01:16:16.680Z,7.16
2018-03-16T01:17:16.664Z,7.04
2018-03-16T01:18:16.650Z,6.96
2018-03-16T01:19:16.636Z,6.94
2018-03-16T01:20:16.630Z,6.93
2018-03-16T01:21:16.615Z,6.93
2018-03-16T01:22:16.592Z,6.81
2018-03-16T01:23:16.577Z,6.79
2018-03-16T01:24:16.569Z,6.90
2018-03-16T01:25:16.550Z,6.86
2018-03-16T01:26:16.537Z,6.89
2018-03-16T01:27:16.520Z,6.79
2018-03-16T01:28:16.506Z,6.86
2018-03-16T01:29:16.496Z,6.81
2018-03-16T01:30:16.477Z,6.75
2018-03-16T01:31:16.472Z,6.81
2018-03-16T01:32:16.446Z,6.78
2018-03-16T01:33:16.432Z,6.71
2018-03-16T01:34:16.420Z,6.76
2018-03-16T01:35:16.407Z,6.72
2018-03-16T01:36:16.390Z,6.75
2018-03-16T01:37:16.375Z,6.69
2018-03-16T01:38:16.368Z,6.75
2018-03-16T01:39:16.352Z,6.75
2018-03-16T01:40:16.338Z,6.76
2018-03-16T01:41:16.318Z,6.73
2018-03-16T01:42:16.307Z,6.72
2018-03-16T01:43:16.286Z,6.72
2018-03-16T01:44:16.272Z,6.68
2018-03-16T01:45:16.259Z,6.71
2018-03-16T01:46:16.252Z,6.71
2018-03-16T01:47:16.233Z,6.69
2018-03-16T01:48:16.215Z,6.64
2018-03-16T01:49:16.202Z,6.61
2018-03-16T01:50:16.194Z,6.65
2018-03-16T01:51:16.170Z,6.68
2018-03-16T01:52:16.156Z,6.55
2018-03-16T01:53:16.138Z,6.55
2018-03-16T01:54:16.125Z,6.46
2018-03-16T01:55:16.117Z,6.46
2018-03-16T01:56:16.104Z,6.43
2018-03-16T01:57:16.086Z,6.33
2018-03-16T01:58:16.072Z,6.27
2018-03-16T01:59:16.053Z,6.21
2018-03-16T02:00:16.036Z,6.14
2018-03-16T02:01:16.023Z,6.10
2018-03-16T02:02:16.016Z,6.03
2018-03-16T02:03:15.991Z,6.06
2018-03-16T02:04:15.977Z,5.96
2018-03-16T02:05:15.962Z,5.98
2018-03-16T02:06:15.947Z,5.93
2018-03-16T02:07:15.938Z,5.93
2018-03-16T02:08:15.920Z,5.93
2018-03-16T02:09:15.904Z,5.92
2018-03-16T02:10:15.893Z,5.96
2018-03-16T02:11:15.871Z,5.92
2018-03-16T02:12:15.856Z,5.81
2018-03-16T02:13:15.843Z,5.85
2018-03-16T02:14:15.838Z,5.87
2018-03-16T02:15:15.812Z,5.78
2018-03-16T02:16:15.796Z,5.90
2018-03-16T02:17:15.790Z,5.98
2018-03-16T02:18:15.775Z,5.92
2018-03-16T02:19:15.760Z,5.84
2018-03-16T02:20:15.737Z,5.96
2018-03-16T02:21:15.730Z,5.92
2018-03-16T02:22:15.713Z,5.85
2018-03-16T02:23:15.692Z,5.87
2018-03-16T02:24:15.678Z,5.98
2018-03-16T02:25:15.662Z,6.01
2018-03-16T02:26:15.650Z,5.93
2018-03-16T02:27:15.630Z,5.92
2018-03-16T02:28:15.615Z,5.92
2018-03-16T02:29:15.601Z,5.88
2018-03-16T02:30:15.588Z,5.84
2018-03-16T02:31:15.576Z,5.74
2018-03-16T02:32:15.562Z,5.74
2018-03-16T02:33:15.552Z,5.75
2018-03-16T02:34:15.535Z,5.69
2018-03-16T02:35:15.510Z,5.63
2018-03-16T02:36:15.495Z,5.73
2018-03-16T02:37:15.481Z,5.55
2018-03-16T02:38:15.463Z,5.55
2018-03-16T02:39:15.447Z,5.49
2018-03-16T02:40:15.433Z,5.45
2018-03-16T02:41:15.416Z,5.47
2018-03-16T02:42:15.409Z,5.37
2018-03-16T02:43:15.393Z,5.47
2018-03-16T02:44:15.373Z,5.58
2018-03-16T02:45:15.361Z,5.51
2018-03-16T02:46:15.342Z,5.59
2018-03-16T02:47:15.325Z,5.58
2018-03-16T02:48:15.318Z,5.52
2018-03-16T02:49:15.294Z,5.44
2018-03-16T02:50:15.280Z,5.42
2018-03-16T02:51:15.265Z,5.40
2018-03-16T02:52:15.257Z,5.33
2018-03-16T02:53:15.234Z,5.24
2018-03-16T02:54:15.219Z,5.23
2018-03-16T02:55:15.201Z,5.19
2018-03-16T02:56:15.186Z,5.19
2018-03-16T02:57:15.181Z,5.15
2018-03-16T02:58:15.161Z,5.17
2018-03-16T02:59:15.141Z,5.23
2018-03-16T03:00:15.126Z,5.40
2018-03-16T03:01:15.117Z,5.32
2018-03-16T03:02:15.094Z,5.30
2018-03-16T03:03:15.081Z,5.32
2018-03-16T03:04:15.065Z,5.20
2018-03-16T03:05:15.051Z,5.24
2018-03-16T03:06:15.034Z,5.23
2018-03-16T03:07:15.017Z,5.26
2018-03-16T03:08:15.002Z,5.22
2018-03-16T03:09:14.985Z,5.22
2018-03-16T03:10:14.972Z,5.23
2018-03-16T03:11:14.954Z,5.19
2018-03-16T03:12:14.944Z,5.24
2018-03-16T03:13:14.927Z,5.17
2018-03-16T03:14:14.921Z,5.14
2018-03-16T03:15:14.892Z,5.14
2018-03-16T03:16:14.875Z,5.04
2018-03-16T03:17:14.860Z,5.08
2018-03-16T03:18:14.847Z,5.08
2018-03-16T03:19:14.830Z,5.08
2018-03-16T03:20:14.816Z,5.09
2018-03-16T03:21:14.798Z,5.06
2018-03-16T03:22:14.789Z,4.97
2018-03-16T03:23:14.769Z,4.96
2018-03-16T03:24:14.749Z,5.02
2018-03-16T03:25:14.734Z,4.99
2018-03-16T03:26:14.727Z,5.04
2018-03-16T03:27:14.707Z,5.14
2018-03-16T03:28:14.689Z,5.06
2018-03-16T03:29:14.672Z,5.04
2018-03-16T03:30:14.659Z,5.01
2018-03-16T03:31:14.641Z,5.05
2018-03-16T03:32:14.630Z,4.96
2018-03-16T03:33:14.617Z,4.87
2018-03-16T03:34:14.663Z,4.79
2018-03-16T03:35:14.578Z,4.83
2018-03-16T03:36:14.572Z,4.80
2018-03-16T03:37:14.554Z,4.75
2018-03-16T03:38:14.531Z,4.69
2018-03-16T03:39:14.522Z,4.67
2018-03-16T03:40:14.499Z,4.69
2018-03-16T03:41:14.490Z,4.69
2018-03-16T03:42:14.470Z,4.68
2018-03-16T03:43:14.458Z,4.80
2018-03-16T03:44:14.434Z,4.77
2018-03-16T03:45:14.418Z,4.68
2018-03-16T03:46:14.403Z,4.87
2018-03-16T03:47:14.407Z,4.84
2018-03-16T03:48:14.371Z,4.90
2018-03-16T03:49:14.356Z,4.96
2018-03-16T03:50:14.339Z,4.84
2018-03-16T03:51:14.323Z,4.84
2018-03-16T03:52:14.312Z,5.04
2018-03-16T03:53:14.292Z,5.11
2018-03-16T03:54:14.278Z,5.08
2018-03-16T03:55:14.265Z,5.05
2018-03-16T03:56:14.245Z,5.04
2018-03-16T03:57:14.234Z,5.05
2018-03-16T03:58:14.213Z,4.96
2018-03-16T03:59:14.200Z,5.01
2018-03-16T04:00:14.181Z,5.04
2018-03-16T04:01:14.172Z,5.01
2018-03-16T04:02:14.151Z,4.96
2018-03-16T04:03:14.134Z,4.94
2018-03-16T04:04:14.125Z,5.04
2018-03-16T04:05:14.102Z,4.97
2018-03-16T04:06:14.086Z,5.02
2018-03-16T04:07:14.076Z,5.01
2018-03-16T04:08:14.056Z,4.97
2018-03-16T04:09:14.043Z,4.99
2018-03-16T04:10:14.027Z,5.02
2018-03-16T04:11:14.012Z,4.99
2018-03-16T04:12:13.990Z,4.99
2018-03-16T04:13:13.981Z,5.08
2018-03-16T04:14:13.965Z,5.05
2018-03-16T04:15:13.943Z,5.08
2018-03-16T04:16:13.926Z,5.05
2018-03-16T04:17:13.912Z,5.09
2018-03-16T04:18:13.897Z,5.30
2018-03-16T04:19:13.885Z,5.23
2018-03-16T04:20:13.863Z,5.24
2018-03-16T04:21:13.851Z,5.27
2018-03-16T04:22:13.869Z,5.41
2018-03-16T04:23:13.821Z,5.45
2018-03-16T04:24:13.805Z,5.47
2018-03-16T04:25:13.789Z,5.56
2018-03-16T04:26:13.817Z,5.69
2018-03-16T04:27:13.841Z,5.67
2018-03-16T04:28:13.788Z,5.70
2018-03-16T04:29:13.807Z,5.77
2018-03-16T04:30:13.711Z,5.77
2018-03-16T04:31:13.697Z,5.74
2018-03-16T04:32:13.676Z,5.77
2018-03-16T04:33:13.661Z,5.66
2018-03-16T04:34:13.642Z,5.66
2018-03-16T04:35:13.627Z,5.67
2018-03-16T04:36:13.616Z,5.63
2018-03-16T04:37:13.595Z,5.66
2018-03-16T04:38:13.580Z,5.69
2018-03-16T04:39:13.562Z,5.63
2018-03-16T04:40:13.558Z,5.66
2018-03-16T04:41:13.534Z,5.75
2018-03-16T04:42:13.519Z,5.74
2018-03-16T04:43:13.503Z,5.81
2018-03-16T04:44:13.487Z,5.87
2018-03-16T04:45:13.479Z,5.84
2018-03-16T04:46:13.469Z,5.85
2018-03-16T04:47:13.445Z,5.81
2018-03-16T04:48:13.426Z,5.84
2018-03-16T04:49:13.410Z,5.88
2018-03-16T04:50:13.396Z,5.85
2018-03-16T04:51:13.387Z,5.96
2018-03-16T04:52:13.370Z,5.87
2018-03-16T04:53:13.349Z,5.90
2018-03-16T04:54:13.331Z,5.99
2018-03-16T04:55:13.316Z,5.85
2018-03-16T04:56:13.301Z,5.90
2018-03-16T04:57:13.313Z,5.93
2018-03-16T04:58:13.270Z,5.90
2018-03-16T04:59:13.259Z,5.90
2018-03-16T05:00:13.237Z,5.88
2018-03-16T05:01:13.221Z,5.84
2018-03-16T05:02:13.207Z,5.93
2018-03-16T05:03:13.193Z,5.90
2018-03-16T05:04:13.175Z,5.95
2018-03-16T05:05:13.160Z,5.98
2018-03-16T05:06:13.147Z,5.90
2018-03-16T05:07:13.128Z,5.95
2018-03-16T05:08:13.115Z,5.88
2018-03-16T05:09:13.107Z,5.95
2018-03-16T05:10:13.084Z,5.98
2018-03-16T05:11:13.068Z,5.93
2018-03-16T05:12:13.052Z,5.99
2018-03-16T05:13:13.036Z,6.05
2018-03-16T05:14:13.024Z,6.02
2018-03-16T05:15:13.005Z,6.03
2018-03-16T05:16:12.992Z,5.95
2018-03-16T05:17:12.977Z,5.95
2018-03-16T05:18:12.967Z,6.03
2018-03-16T05:19:12.952Z,6.02
2018-03-16T05:20:12.932Z,5.90
2018-03-16T05:21:12.913Z,5.90
2018-03-16T05:22:12.899Z,5.88
2018-03-16T05:23:12.883Z,5.88
2018-03-16T05:24:12.871Z,5.84
2018-03-16T05:25:12.852Z,5.84
2018-03-16T05:26:12.842Z,5.87
2018-03-16T05:27:12.821Z,5.83
2018-03-16T05:28:12.807Z,5.85
2018-03-16T05:29:12.796Z,5.85
2018-03-16T05:30:12.777Z,5.77
2018-03-16T05:31:12.762Z,5.78
2018-03-16T05:32:12.746Z,5.85
2018-03-16T05:33:12.738Z,5.85
2018-03-16T05:34:12.714Z,5.74
2018-03-16T05:35:12.698Z,5.87
2018-03-16T05:36:12.685Z,5.81
2018-03-16T05:37:12.676Z,5.90
2018-03-16T05:38:12.658Z,5.80
2018-03-16T05:39:12.637Z,5.93
2018-03-16T05:40:12.622Z,5.90
2018-03-16T05:41:12.607Z,5.93
2018-03-16T05:42:12.593Z,5.90
2018-03-16T05:43:12.577Z,6.03
2018-03-16T05:44:12.563Z,6.06
2018-03-16T05:45:12.549Z,6.13
2018-03-16T05:46:12.541Z,6.20
2018-03-16T05:47:12.518Z,6.20
2018-03-16T05:48:12.507Z,6.24
2018-03-16T05:49:12.487Z,6.28
2018-03-16T05:50:12.476Z,6.27
2018-03-16T05:51:12.463Z,6.38
2018-03-16T05:52:12.441Z,6.35
2018-03-16T05:53:12.426Z,6.35
2018-03-16T05:54:12.418Z,6.40
2018-03-16T05:55:12.402Z,6.45
2018-03-16T05:56:12.386Z,6.40
2018-03-16T05:57:12.374Z,6.48
2018-03-16T05:58:12.354Z,6.45
2018-03-16T05:59:12.343Z,6.46
2018-03-16T06:00:12.322Z,6.51
2018-03-16T06:01:12.308Z,6.50
2018-03-16T06:02:12.296Z,6.53
2018-03-16T06:03:12.276Z,6.60
2018-03-16T06:04:12.266Z,6.65
2018-03-16T06:05:12.248Z,6.63
2018-03-16T06:06:12.238Z,6.63
2018-03-16T06:07:12.217Z,6.64
2018-03-16T06:08:12.203Z,6.63
2018-03-16T06:09:12.194Z,6.55
2018-03-16T06:10:12.174Z,6.58
2018-03-16T06:11:12.157Z,6.46
2018-03-16T06:12:12.143Z,6.46
2018-03-16T06:13:12.133Z,6.48
2018-03-16T06:14:12.113Z,6.55
2018-03-16T06:15:12.106Z,6.54
2018-03-16T06:16:12.086Z,6.54
2018-03-16T06:17:12.069Z,6.53
2018-03-16T06:18:12.059Z,6.65
2018-03-16T06:19:12.046Z,6.65
2018-03-16T06:20:12.030Z,6.60
2018-03-16T06:21:12.008Z,6.69
2018-03-16T06:22:11.995Z,6.65
2018-03-16T06:23:11.979Z,6.64
2018-03-16T06:24:11.964Z,6.63
2018-03-16T06:25:11.950Z,6.72
2018-03-16T06:26:11.939Z,6.64
2018-03-16T06:27:11.922Z,6.57
2018-03-16T06:28:11.913Z,6.69
2018-03-16T06:29:11.898Z,6.71
2018-03-16T06:30:11.883Z,6.76
2018-03-16T06:31:11.861Z,6.76
2018-03-16T06:32:11.853Z,6.81
2018-03-16T06:33:11.842Z,6.76
2018-03-16T06:34:11.826Z,6.83
2018-03-16T06:35:11.802Z,6.79
2018-03-16T06:36:11.794Z,6.76
2018-03-16T06:37:11.772Z,6.82
2018-03-16T06:38:11.758Z,6.87
2018-03-16T06:39:11.742Z,6.81
2018-03-16T06:40:11.736Z,6.81
2018-03-16T06:41:11.715Z,6.82
2018-03-16T06:42:11.700Z,6.78
2018-03-16T06:43:11.687Z,6.87
2018-03-16T06:44:11.674Z,6.86
2018-03-16T06:45:11.658Z,6.83
2018-03-16T06:46:11.646Z,6.90
2018-03-16T06:47:11.634Z,6.93
2018-03-16T06:48:11.612Z,6.94
2018-03-16T06:49:11.596Z,6.94
2018-03-16T06:50:11.583Z,6.81
2018-03-16T06:51:11.567Z,6.96
2018-03-16T06:52:11.554Z,6.83
2018-03-16T06:53:11.547Z,6.91
2018-03-16T06:54:11.525Z,6.94
2018-03-16T06:55:11.512Z,6.94
2018-03-16T06:56:11.500Z,7.05
2018-03-16T06:57:11.484Z,7.11
2018-03-16T06:58:11.477Z,7.08
2018-03-16T06:59:11.457Z,7.18
2018-03-16T07:00:11.440Z,7.14
2018-03-16T07:01:11.424Z,7.23
2018-03-16T07:02:11.412Z,7.21
2018-03-16T07:03:11.394Z,7.29
2018-03-16T07:04:11.383Z,7.21
2018-03-16T07:05:11.366Z,7.33
2018-03-16T07:06:11.351Z,7.32
2018-03-16T07:07:11.337Z,7.34
2018-03-16T07:08:11.332Z,7.42
2018-03-16T07:09:11.310Z,7.45
2018-03-16T07:10:11.302Z,7.48
2018-03-16T07:11:11.287Z,7.42
2018-03-16T07:12:11.277Z,7.48
2018-03-16T07:13:11.265Z,7.51
2018-03-16T07:14:11.241Z,7.66
2018-03-16T07:15:11.224Z,7.71
2018-03-16T07:16:11.209Z,7.69
2018-03-16T07:17:11.195Z,7.81
2018-03-16T07:18:11.183Z,7.77
2018-03-16T07:19:11.171Z,7.82
2018-03-16T07:20:11.152Z,7.84
2018-03-16T07:21:11.143Z,7.88
2018-03-16T07:22:11.134Z,7.89
2018-03-16T07:23:11.131Z,7.95
2018-03-16T07:24:11.096Z,7.92
2018-03-16T07:25:11.084Z,7.95
2018-03-16T07:26:11.069Z,7.95
2018-03-16T07:27:11.062Z,8.07
2018-03-16T07:28:11.042Z,8.07
2018-03-16T07:29:11.026Z,8.10
2018-03-16T07:30:11.017Z,8.20
2018-03-16T07:31:11.005Z,8.12
2018-03-16T07:32:10.986Z,8.21
2018-03-16T07:33:10.972Z,8.18
2018-03-16T07:34:10.958Z,8.18
2018-03-16T07:35:10.989Z,8.32
2018-03-16T07:36:10.934Z,8.29
2018-03-16T07:37:10.951Z,8.36
2018-03-16T07:38:10.908Z,8.28
2018-03-16T07:39:10.889Z,8.32
2018-03-16T07:40:10.879Z,8.42
2018-03-16T07:41:10.866Z,8.46
2018-03-16T07:42:10.850Z,8.54
2018-03-16T07:43:10.835Z,8.47
2018-03-16T07:44:10.822Z,8.60
2018-03-16T07:45:10.814Z,8.52
2018-03-16T07:46:10.796Z,8.57
2018-03-16T07:47:10.780Z,8.61
2018-03-16T07:48:10.774Z,8.63
2018-03-16T07:49:10.755Z,8.64
2018-03-16T07:50:10.744Z,8.70
2018-03-16T07:51:10.732Z,8.73
2018-03-16T07:52:10.720Z,8.65
2018-03-16T07:53:10.713Z,8.73
2018-03-16T07:54:10.688Z,8.65
2018-03-16T07:55:10.677Z,8.61
2018-03-16T07:56:10.662Z,8.58
2018-03-16T07:57:10.648Z,8.67
2018-03-16T07:58:10.638Z,8.70
2018-03-16T07:59:10.627Z,8.75
2018-03-16T08:00:10.609Z,8.73
2018-03-16T08:01:10.603Z,8.75
2018-03-16T08:02:10.582Z,8.82
2018-03-16T08:03:10.575Z,8.83
2018-03-16T08:04:10.572Z,8.88
2018-03-16T08:05:10.546Z,8.86
2018-03-16T08:06:10.537Z,8.83
2018-03-16T08:07:10.521Z,8.93
2018-03-16T08:08:10.507Z,8.89
2018-03-16T08:09:10.494Z,8.96
2018-03-16T08:10:10.479Z,8.96
2018-03-16T08:11:10.467Z,9.03
2018-03-16T08:12:10.455Z,9.00
2018-03-16T08:13:10.440Z,9.03
2018-03-16T08:14:10.433Z,8.97
2018-03-16T08:15:10.472Z,8.96
2018-03-16T08:16:10.411Z,9.01
2018-03-16T08:17:10.394Z,9.23
2018-03-16T08:18:10.377Z,9.31
2018-03-16T08:19:10.362Z,9.30
2018-03-16T08:20:10.350Z,9.37
2018-03-16T08:21:10.339Z,9.42
2018-03-16T08:22:10.331Z,9.48
2018-03-16T08:23:10.320Z,9.44
2018-03-16T08:24:10.305Z,9.60
2018-03-16T08:25:10.287Z,9.67
2018-03-16T08:26:10.281Z,9.75
2018-03-16T08:27:10.261Z,9.70
2018-03-16T08:28:10.271Z,9.70
2018-03-16T08:29:10.238Z,9.73
2018-03-16T08:30:10.226Z,9.75
2018-03-16T08:31:10.212Z,9.80
2018-03-16T08:32:10.203Z,9.81
2018-03-16T08:33:10.197Z,9.96
2018-03-16T08:34:10.179Z,9.95
2018-03-16T08:35:10.162Z,9.96
2018-03-16T08:36:10.152Z,9.93
2018-03-16T08:37:10.140Z,9.92
2018-03-16T08:38:10.132Z,9.88
2018-03-16T08:39:10.130Z,9.93
2018-03-16T08:40:10.102Z,9.92
2018-03-16T08:41:10.097Z,9.92
2018-03-16T08:42:10.079Z,9.83
2018-03-16T08:43:10.065Z,9.86
2018-03-16T08:44:10.052Z,9.77
2018-03-16T08:45:10.042Z,9.78
2018-03-16T08:46:10.060Z,9.77
2018-03-16T08:47:10.019Z,9.85
2018-03-16T08:48:10.015Z,9.80
2018-03-16T08:49:09.994Z,9.81
2018-03-16T08:50:09.981Z,10.01
2018-03-16T08:51:09.982Z,9.98
2018-03-16T08:52:09.957Z,10.02
2018-03-16T08:53:09.957Z,10.06
2018-03-16T08:54:09.936Z,10.06
2018-03-16T08:55:09.929Z,10.02
2018-03-16T08:56:09.908Z,10.07
2018-03-16T08:57:09.895Z,10.14
2018-03-16T08:58:09.886Z,10.18
2018-03-16T08:59:09.877Z,10.28
2018-03-16T09:00:09.867Z,10.28
2018-03-16T09:01:09.852Z,10.28
2018-03-16T09:02:09.837Z,10.38
2018-03-16T09:03:09.829Z,10.38
2018-03-16T09:04:09.813Z,10.58
2018-03-16T09:05:09.800Z,10.63
2018-03-16T09:06:09.788Z,10.62
2018-03-16T09:07:09.787Z,10.63
2018-03-16T09:08:09.764Z,10.72
2018-03-16T09:09:09.754Z,10.68
2018-03-16T09:10:09.748Z,10.84
2018-03-16T09:11:09.736Z,10.80
2018-03-16T09:12:09.718Z,10.86
2018-03-16T09:13:09.707Z,10.78
2018-03-16T09:14:09.696Z,10.72
2018-03-16T09:15:09.683Z,10.75
2018-03-16T09:16:09.675Z,10.72
2018-03-16T09:17:09.661Z,10.76
2018-03-16T09:18:09.651Z,10.80
2018-03-16T09:19:09.637Z,10.83
2018-03-16T09:20:09.626Z,10.91
2018-03-16T09:21:09.622Z,11.05
2018-03-16T09:22:09.606Z,10.94
2018-03-16T09:23:09.591Z,11.01
2018-03-16T09:24:09.580Z,10.99
2018-03-16T09:25:09.571Z,11.09
2018-03-16T09:26:09.559Z,11.01
2018-03-16T09:27:09.549Z,11.09
2018-03-16T09:28:09.535Z,11.23
2018-03-16T09:29:09.524Z,11.19
2018-03-16T09:30:09.518Z,11.19
2018-03-16T09:31:09.504Z,11.24
2018-03-16T09:32:09.490Z,11.27
2018-03-16T09:33:09.479Z,11.28
2018-03-16T09:34:09.469Z,11.36
2018-03-16T09:35:09.457Z,11.38
2018-03-16T09:36:09.444Z,11.33
2018-03-16T09:37:09.433Z,11.39
2018-03-16T09:38:09.423Z,11.39
2018-03-16T09:39:09.418Z,11.48
2018-03-16T09:40:09.410Z,11.46
2018-03-16T09:41:09.397Z,11.38
2018-03-16T09:42:09.379Z,11.48
2018-03-16T09:43:09.372Z,11.48
2018-03-16T09:44:09.357Z,11.48
2018-03-16T09:45:09.350Z,11.46
2018-03-16T09:46:09.344Z,11.49
2018-03-16T09:47:09.326Z,11.48
2018-03-16T09:48:09.317Z,11.46
2018-03-16T09:49:09.311Z,11.48
2018-03-16T09:50:09.292Z,11.60
2018-03-16T09:51:09.290Z,11.63
2018-03-16T09:52:09.271Z,11.64
2018-03-16T09:53:09.260Z,11.63
2018-03-16T09:54:09.251Z,11.63
2018-03-16T09:55:09.238Z,11.48
2018-03-16T09:56:09.228Z,11.48
2018-03-16T09:57:09.220Z,11.48
2018-03-16T09:58:09.206Z,11.45
2018-03-16T09:59:09.202Z,11.63
2018-03-16T10:00:09.188Z,11.59
2018-03-16T10:01:09.175Z,11.57
2018-03-16T10:02:09.202Z,11.48
2018-03-16T10:03:09.154Z,11.59
2018-03-16T10:04:09.145Z,11.42
2018-03-16T10:05:09.141Z,11.60
2018-03-16T10:06:09.127Z,11.57
2018-03-16T10:07:09.111Z,11.46
2018-03-16T10:08:09.099Z,11.48
2018-03-16T10:09:09.097Z,11.46
2018-03-16T10:10:09.081Z,11.46
2018-03-16T10:11:09.073Z,11.57
2018-03-16T10:12:09.059Z,11.45
2018-03-16T10:13:09.047Z,11.42
2018-03-16T10:14:09.037Z,11.46
2018-03-16T10:15:09.025Z,11.44
2018-03-16T10:16:09.016Z,11.48
2018-03-16T10:17:09.005Z,11.44
2018-03-16T10:18:08.994Z,11.48
2018-03-16T10:19:08.984Z,11.64
2018-03-16T10:20:08.973Z,11.70
2018-03-16T10:21:08.962Z,11.81
2018-03-16T10:22:08.956Z,11.72
2018-03-16T10:23:08.942Z,11.82
2018-03-16T10:24:08.932Z,11.82
2018-03-16T10:25:08.920Z,11.90
2018-03-16T10:26:08.917Z,12.08
2018-03-16T10:27:08.899Z,12.16
2018-03-16T10:28:08.895Z,12.21
2018-03-16T10:29:08.879Z,12.38
2018-03-16T10:30:08.872Z,12.43
2018-03-16T10:31:08.916Z,12.46
2018-03-16T10:32:08.857Z,12.44
2018-03-16T10:33:08.839Z,12.48
2018-03-16T10:34:08.829Z,12.62
2018-03-16T10:35:08.818Z,12.56
2018-03-16T10:36:08.807Z,12.61
2018-03-16T10:37:08.827Z,12.62
2018-03-16T10:38:08.794Z,12.61
2018-03-16T10:39:08.784Z,12.67
2018-03-16T10:40:08.768Z,12.62
2018-03-16T10:41:08.765Z,12.55
2018-03-16T10:42:08.761Z,12.54
2018-03-16T10:43:08.744Z,12.61
2018-03-16T10:44:08.737Z,12.56
2018-03-16T10:45:08.724Z,12.40
2018-03-16T10:46:08.712Z,12.37
2018-03-16T10:47:08.709Z,12.43
2018-03-16T10:48:08.689Z,12.31
2018-03-16T10:49:08.681Z,12.34
2018-03-16T10:50:08.670Z,12.34
2018-03-16T10:51:08.660Z,12.33
2018-03-16T10:52:08.657Z,12.30
2018-03-16T10:53:08.643Z,12.23
2018-03-16T10:54:08.632Z,12.22
2018-03-16T10:55:08.620Z,12.31
2018-03-16T10:56:08.615Z,12.30
2018-03-16T10:57:08.605Z,12.29
2018-03-16T10:58:08.593Z,12.37
2018-03-16T10:59:08.582Z,12.41
2018-03-16T11:00:08.579Z,12.52
2018-03-16T11:01:08.565Z,12.49
2018-03-16T11:02:08.554Z,12.54
2018-03-16T11:03:08.544Z,12.56
2018-03-16T11:04:08.541Z,12.59
2018-03-16T11:05:08.532Z,12.59
2018-03-16T11:06:08.514Z,12.59
2018-03-16T11:07:08.508Z,12.63
2018-03-16T11:08:08.495Z,12.69
2018-03-16T11:09:08.496Z,12.76
2018-03-16T11:10:08.477Z,12.74
2018-03-16T11:11:08.474Z,12.94
2018-03-16T11:12:08.466Z,12.98
2018-03-16T11:13:08.449Z,13.13
2018-03-16T11:14:08.441Z,13.21
2018-03-16T11:15:08.428Z,13.29
2018-03-16T11:16:08.420Z,13.22
2018-03-16T11:17:08.411Z,13.25
2018-03-16T11:18:08.401Z,13.35
2018-03-16T11:19:08.395Z,13.36
2018-03-16T11:20:08.392Z,13.35
2018-03-16T11:21:08.381Z,13.50
2018-03-16T11:22:08.365Z,13.57
2018-03-16T11:23:08.357Z,13.51
2018-03-16T11:24:08.345Z,13.41
2018-03-16T11:25:08.336Z,13.41
2018-03-16T11:26:08.329Z,13.55
2018-03-16T11:27:08.327Z,13.66
2018-03-16T11:28:08.311Z,13.69
2018-03-16T11:29:08.303Z,13.80
2018-03-16T11:30:08.293Z,13.91
2018-03-16T11:31:08.280Z,13.98
2018-03-16T11:32:08.281Z,13.96
2018-03-16T11:33:08.267Z,14.02
2018-03-16T11:34:08.254Z,14.16
2018-03-16T11:35:08.247Z,14.06
2018-03-16T11:36:08.238Z,14.11
2018-03-16T11:37:08.229Z,14.24
2018-03-16T11:38:08.220Z,14.19
2018-03-16T11:39:08.217Z,14.39
2018-03-16T11:40:08.204Z,14.46
2018-03-16T11:41:08.200Z,14.53
2018-03-16T11:42:08.191Z,14.60
2018-03-16T11:43:08.179Z,14.57
2018-03-16T11:44:08.168Z,14.48
2018-03-16T11:45:08.163Z,14.45
2018-03-16T11:46:08.153Z,14.41
2018-03-16T11:47:08.145Z,14.42
2018-03-16T11:48:08.145Z,14.46
2018-03-16T11:49:08.137Z,14.41
2018-03-16T11:50:08.120Z,14.27
2018-03-16T11:51:08.112Z,14.29
2018-03-16T11:52:08.107Z,14.26
2018-03-16T11:53:08.101Z,14.34
2018-03-16T11:54:08.092Z,14.21
2018-03-16T11:55:08.082Z,14.21
2018-03-16T11:56:08.071Z,14.27
2018-03-16T11:57:08.066Z,14.30
2018-03-16T11:58:08.063Z,14.31
2018-03-16T11:59:08.052Z,14.41
2018-03-16T12:00:08.039Z,14.41
2018-03-16T12:01:08.031Z,14.42
2018-03-16T12:02:08.022Z,14.41
2018-03-16T12:03:08.014Z,14.45
2018-03-16T12:04:08.011Z,14.45
2018-03-16T12:05:08.000Z,14.52
2018-03-16T12:06:08.002Z,14.63
2018-03-16T12:07:07.985Z,14.75
2018-03-16T12:08:07.977Z,14.80
2018-03-16T12:09:07.967Z,14.80
2018-03-16T12:10:07.959Z,14.79
2018-03-16T12:11:07.956Z,14.79
2018-03-16T12:12:07.946Z,14.74
2018-03-16T12:13:07.937Z,14.69
2018-03-16T12:14:07.931Z,14.56
2018-03-16T12:15:07.921Z,14.46
2018-03-16T12:16:07.919Z,14.41
2018-03-16T12:17:07.904Z,14.20
2018-03-16T12:18:07.904Z,14.16
2018-03-16T12:19:07.889Z,14.05
2018-03-16T12:20:07.882Z,14.02
2018-03-16T12:21:07.876Z,13.96
2018-03-16T12:22:07.871Z,13.84
2018-03-16T12:23:07.857Z,13.76
2018-03-16T12:24:07.850Z,13.75
2018-03-16T12:25:07.843Z,13.76
2018-03-16T12:26:07.838Z,13.62
2018-03-16T12:27:07.826Z,13.71
2018-03-16T12:28:07.816Z,13.50
2018-03-16T12:29:07.811Z,13.53
2018-03-16T12:30:07.801Z,13.50
2018-03-16T12:31:07.797Z,13.46
2018-03-16T12:32:07.786Z,13.29
2018-03-16T12:33:07.783Z,13.36
2018-03-16T12:34:07.772Z,13.44
2018-03-16T12:35:07.758Z,13.36
2018-03-16T12:36:07.756Z,13.38
2018-03-16T12:37:07.747Z,13.46
2018-03-16T12:38:07.734Z,13.29
2018-03-16T12:39:07.723Z,13.38
2018-03-16T12:40:07.720Z,13.47
2018-03-16T12:41:07.706Z,13.54
2018-03-16T12:42:07.700Z,13.65
2018-03-16T12:43:07.691Z,13.76
2018-03-16T12:44:07.681Z,13.68
2018-03-16T12:45:07.685Z,13.63
2018-03-16T12:46:07.669Z,13.71
2018-03-16T12:47:07.662Z,13.71
2018-03-16T12:48:07.646Z,13.66
2018-03-16T12:49:07.639Z,13.68
2018-03-16T12:50:07.628Z,13.76
2018-03-16T12:51:07.626Z,13.83
2018-03-16T12:52:07.613Z,13.94
2018-03-16T12:53:07.605Z,13.86
2018-03-16T12:54:07.599Z,13.87
2018-03-16T12:55:07.585Z,13.84
2018-03-16T12:56:07.578Z,13.71
2018-03-16T12:57:07.576Z,13.48
2018-03-16T12:58:07.563Z,13.44
2018-03-16T12:59:07.551Z,13.48
2018-03-16T13:00:07.544Z,13.75
2018-03-16T13:01:07.539Z,13.86
2018-03-16T13:02:07.526Z,14.08
2018-03-16T13:03:07.516Z,14.24
2018-03-16T13:04:07.515Z,14.42
2018-03-16T13:05:07.507Z,14.36
2018-03-16T13:06:07.492Z,14.57
2018-03-16T13:07:07.484Z,14.59
2018-03-16T13:08:07.477Z,14.80
2018-03-16T13:09:07.466Z,14.86